Detall de PIREP

Printer-friendly versionPDF version

[2015/11/21 15:50:00]
Flight IATA:CT1001
Pilot Number:012
Company ICAO:CAT
Aircraft Type:F50/A
PAX:50
Aircraft Registration:PAOB
Departing Airport: LERS
Destination Airport: LEMH
Alternate Airport:LEBL
Online: VATSIM
Route:LERS/25 BCN H70 SARGO
Flight Level:F17000
No Slew and time accel
No pause
Crash detect
Detect pilot in Cockpit between each 30 and 45 minutes
15:50 Zero fuel Weight: 37242 Lbs, Fuel Weight: 5886 Lbs
15:50 VATSIM:LERS 211530Z 29031G49KT CAVOK 14/M01 Q1005
15:50 VATSIM:LEMH 211530Z 04011KT 9000 DZ SCT034 BKN040 12/11 Q1005
15:53 IFR CLASSIC
16:00 Parking Brakes off
16:04 Take-off
16:04 Take off Weight: 42985 Lbs
16:04 Wind: 290º @ 039 Knots Heading: 258º
16:04 POS N41º 08´ 54´´ E001º 10´ 15´´
16:04 Gear Up: 116 Knots
16:04 Flaps:3 at 116 Knots
16:05 Flaps:2 at 124 Knots
16:05 Flaps:1 at 138 Knots
16:05 Flaps:0 at 151 Knots
16:19 Wind:307º@055Knots Heading: 062º Ground Speed: 275 Knots Altitude 16765 ft
16:34 Wind:302º@055 Knots Heading: 118º Ground Speed: 312 Knots Altitude 16771 ft
16:49 Wind:298º@036 Knots Heading: 188º Ground Speed: 266 Knots Altitude 10597 ft
16:54 Flaps:1 at 178 Knots
16:54 Flaps:2 at 154 Knots
16:54 Gear Down: 122 Knots
16:54 Flaps:3 at 122 Knots
16:55 Flaps:4 at 113 Knots
16:56 Flaps:5 at 93 Knots
16:56 Flaps:6 at 107 Knots
16:59 TouchDown:Rate -156 ft/min Speed: 105 Knots
17:00 Flaps:4 at 49 Knots
17:00 Flaps:1 at 47 Knots
17:00 Flaps:0 at 46 Knots
17:00 VATSIM:LEMH 211630Z 01020KT 9000 4000NW RA FEW008 SCT030 BKN036 10/09 Q1006
17:00 Land
17:00 Wind:353º@006 Knots
17:00 Heading: 012º
17:00 Flight Duration: 00:56
17:00 Landing Weight: 41418 Lbs
17:00 POS N39º 51´ 35´´ E004º 13´ 04´´
17:01 Parking brakes on
17:01 Block to Block Duration: 01:01
17:01 Final Fuel: 4162 Lbls
17:01 Spent Fuel: 1723 Lbls
17:01 Flight Length: 230 NM
17:01 TOD Land Length: 230 NM

Exportar CSV

Powered by Drupal - Modified by Danger4k